To NAV CANADA Home Page Login to a new session Search on AWWS site Feedback and Comments Disclaimer Vers la page française équivalente Tips FAQ What's new on the site To the Forecasts and Observations / NOTAM section To "File a Flight Plan" website Publications and other links Update of the User's profile FIC Telephone Numbers My Weather Data Folder Route Weather Data Regional Weather Data Local Weather Data To the Forecasts and Observations / NOTAM section
Request Generated 01/21/2017 at 02:09:33 UTC . Weather information available at that time is displayed.

METAR/TAF

If you find any discrepancies between the coded METAR/TAF and the plain language METAR/TAF please use the coded METAR/TAF. LWIS bulletins are not decoded in plain language.

CALGARY/SPRINGBANK/AB    (show WxCam)

METAR CYBW 210200Z AUTO 31003KT 9SM CLR M03/M09 A2930 RMK SLP975=
METAR
LOCATION
CYBW - CALGARY/SPRINGBANK/AB
DATE - TIME
21 JANUARY 2017 - 0200 UTC
WIND
310 TRUE @ 3  KNOTS
VISIBILITY
9 STAT.  MILES
RUNWAY VISUAL RANGE
WEATHER
CLOUDINESS
CLEAR SKY
TEMP / DEWPOINT
-3 C / -9 C
ALTIMETER
29.30 IN HG
RECENT WEATHER
WIND SHEAR

METAR CYBW 210100Z AUTO 20004KT 9SM CLR M00/M09 A2929 RMK SLP966=
METAR
LOCATION
CYBW - CALGARY/SPRINGBANK/AB
DATE - TIME
21 JANUARY 2017 - 0100 UTC
WIND
200 TRUE @ 4  KNOTS
VISIBILITY
9 STAT.  MILES
RUNWAY VISUAL RANGE
WEATHER
CLOUDINESS
CLEAR SKY
TEMP / DEWPOINT
0 C / -9 C
ALTIMETER
29.29 IN HG
RECENT WEATHER
WIND SHEAR

METAR CYBW 210000Z AUTO 20006KT 9SM CLR M01/M07 A2928 RMK SLP959=
METAR
LOCATION
CYBW - CALGARY/SPRINGBANK/AB
DATE - TIME
21 JANUARY 2017 - 0000 UTC
WIND
200 TRUE @ 6  KNOTS
VISIBILITY
9 STAT.  MILES
RUNWAY VISUAL RANGE
WEATHER
CLOUDINESS
CLEAR SKY
TEMP / DEWPOINT
-1 C / -7 C
ALTIMETER
29.28 IN HG
RECENT WEATHER
WIND SHEAR

TAF CYBW 202348Z 2100/2105 20005KT P6SM SKC BECMG 2102/2104 33005KT RMK FCST BASED ON AUTO OBS. NXT FCST WILL BE ISSUED AT 211245Z=
TAF
LOCATION

CYBW - CALGARY/SPRINGBANK/AB
VALIDITY [UTC]
20 JAN - 2348 to
21 JAN - 0500
 
TIMES
[UTC]
WIND
[DEGREES TRUE]
VISIBILITY
[STAT. MILES]
WEATHER
CLOUDINESS
[FEET AGL]
 
21 JAN - 0000 to
21 JAN - 0500
200 @ 5 KNOTS
6+
NIL
CLEAR SKY
BECOMING
21 JAN - 0200 to
21 JAN - 0400
330 @ 5 KNOTS
 
 
 
REMARKS
THE FORECAST IS BASED ON AUTOMATIC OBSERVATIONS - THE NEXT FORECAST WILL BE ISSUED AT 1245 UTC ON DAY 21


Your time UTC time
Weather data provided by Environment Canada and NAV CANADA